createdAt,value
2018-05-27T06:15:11.579Z,26.67
2018-05-27T06:16:02.250Z,26.58
2018-05-27T06:24:06.983Z,21.34
2018-05-27T06:29:12.549Z,21.29
2018-05-27T06:34:17.963Z,21.52
2018-05-27T06:39:30.281Z,21.47
2018-05-27T06:44:38.371Z,21.87
2018-05-27T06:49:44.165Z,21.40
2018-05-27T06:54:51.107Z,21.21
2018-05-27T07:00:01.903Z,21.78
2018-05-27T07:05:08.740Z,22.11
2018-05-27T07:07:39.392Z,21.99
2018-05-27T07:10:09.737Z,22.09
2018-05-27T07:12:40.102Z,22.53
2018-05-27T07:15:11.060Z,22.39
2018-05-27T07:17:41.582Z,22.06
2018-05-27T07:20:12.378Z,22.18
2018-05-27T07:22:42.568Z,21.65
2018-05-27T07:25:12.667Z,21.49
2018-05-27T07:27:43.088Z,21.74
2018-05-27T07:30:14.477Z,21.64
2018-05-27T07:32:45.693Z,21.57
2018-05-27T07:35:16.914Z,21.40
2018-05-27T07:37:47.767Z,21.47
2018-05-27T07:40:18.334Z,21.46
2018-05-27T07:42:48.805Z,21.54
2018-05-27T07:45:19.560Z,21.53
2018-05-27T07:47:53.250Z,21.59
2018-05-27T07:52:59.040Z,21.50
2018-05-27T07:58:09.937Z,21.87
2018-05-27T08:03:16.766Z,22.24
2018-05-27T08:08:28.628Z,22.56
2018-05-27T08:13:34.032Z,22.75
2018-05-27T08:18:39.401Z,22.79
2018-05-27T08:23:45.322Z,22.82
2018-05-27T08:28:51.033Z,22.70
2018-05-27T08:33:56.378Z,22.77
2018-05-27T08:39:02.277Z,22.85
2018-05-27T08:44:11.336Z,23.10
2018-05-27T08:49:21.736Z,22.88
2018-05-27T08:54:39.606Z,23.40
2018-05-27T08:59:54.947Z,23.50
2018-05-27T09:10:37.195Z,23.51
2018-05-27T09:15:45.181Z,23.56
2018-05-27T09:20:51.598Z,23.75
2018-05-27T09:25:58.000Z,24.04
2018-05-27T09:31:05.359Z,24.21
2018-05-27T09:36:11.415Z,24.56
2018-05-27T09:41:17.873Z,24.62
2018-05-27T09:46:23.256Z,24.75
2018-05-27T09:51:29.605Z,25.15
2018-05-27T09:56:36.057Z,24.83
2018-05-27T10:01:41.756Z,25.12
2018-05-27T10:06:47.359Z,24.85
2018-05-27T10:11:52.818Z,25.24
2018-05-27T10:16:59.211Z,25.31
2018-05-27T10:22:04.461Z,24.85
2018-05-27T10:27:09.798Z,24.70
2018-05-27T10:32:15.018Z,24.92
2018-05-27T10:37:20.360Z,25.07
2018-05-27T10:42:25.815Z,24.99
2018-05-27T10:47:33.251Z,24.79
2018-05-27T10:52:38.636Z,25.04
2018-05-27T10:57:45.002Z,24.72
2018-05-27T11:02:50.464Z,25.25
2018-05-27T11:08:05.950Z,25.33
2018-05-27T11:13:12.389Z,25.14
2018-05-27T11:23:35.060Z,26.23
2018-05-27T11:28:51.586Z,26.27
2018-05-27T11:33:57.060Z,25.42
2018-05-27T11:39:05.154Z,25.49
2018-05-27T11:44:10.575Z,25.99
2018-05-27T11:49:24.999Z,26.21
2018-05-27T11:54:42.482Z,25.95
2018-05-27T11:59:48.833Z,26.45
2018-05-27T12:04:56.077Z,26.37
2018-05-27T12:10:05.387Z,27.07
2018-05-27T12:15:10.668Z,26.87
2018-05-27T12:20:16.011Z,26.38
2018-05-27T12:25:22.325Z,26.64
2018-05-27T12:30:27.815Z,26.22
2018-05-27T12:35:33.243Z,25.90
2018-05-27T12:40:39.291Z,25.86
2018-05-27T12:45:44.862Z,25.86
2018-05-27T12:50:55.409Z,25.51
2018-05-27T12:56:00.891Z,25.71
2018-05-27T13:01:05.998Z,25.92
2018-05-27T13:06:11.252Z,25.78
2018-05-27T13:11:16.487Z,26.68
2018-05-27T13:16:29.437Z,26.27
2018-05-27T13:21:34.843Z,26.28
2018-05-27T13:26:40.617Z,26.56
2018-05-27T13:31:46.023Z,26.92
2018-05-27T13:36:51.472Z,27.19
2018-05-27T13:41:56.776Z,26.85
2018-05-27T13:47:02.106Z,27.19
2018-05-27T13:52:07.235Z,27.29
2018-05-27T13:57:12.898Z,27.43
2018-05-27T14:02:18.193Z,27.30
2018-05-27T14:07:23.530Z,27.07
2018-05-27T16:07:26.977Z,26.40
2018-05-27T16:12:33.797Z,25.92
2018-05-27T16:17:38.914Z,25.69
2018-05-27T16:22:43.994Z,25.47
2018-05-27T16:27:49.879Z,24.96
2018-05-27T16:32:54.942Z,24.86
2018-05-27T16:38:02.032Z,24.38
2018-05-27T16:43:07.411Z,24.89
2018-05-27T16:48:14.005Z,24.21
2018-05-27T16:53:18.958Z,23.89
2018-05-27T16:58:23.806Z,23.17
2018-05-27T17:03:29.047Z,22.56
2018-05-27T17:08:34.094Z,21.79
2018-05-27T17:13:39.824Z,21.41
2018-05-27T17:18:44.731Z,21.11
2018-05-27T17:23:49.564Z,21.00
2018-05-27T17:28:54.351Z,20.79
2018-05-27T17:33:59.934Z,20.52
2018-05-27T17:39:06.263Z,20.35
2018-05-27T17:44:12.483Z,20.22
2018-05-27T17:49:17.874Z,20.03
2018-05-27T17:54:23.657Z,19.88
2018-05-27T17:59:28.406Z,19.78
2018-05-27T18:04:34.783Z,19.68
2018-05-27T18:09:39.516Z,19.60
2018-05-27T18:14:46.524Z,19.52
2018-05-27T18:19:51.973Z,19.47
2018-05-27T18:24:57.876Z,19.64
2018-05-27T18:30:04.254Z,19.36
2018-05-27T18:35:09.387Z,19.15
2018-05-27T18:40:13.947Z,18.99
2018-05-27T18:45:19.075Z,18.88
2018-05-27T18:50:24.744Z,18.80
2018-05-27T18:55:30.700Z,19.30
2018-05-27T19:00:36.920Z,19.69
2018-05-27T19:05:46.046Z,19.58
2018-05-27T19:10:53.409Z,19.15
2018-05-27T19:15:58.696Z,19.43
2018-05-27T19:21:05.059Z,19.36
2018-05-27T19:26:10.435Z,19.81
2018-05-27T19:31:19.602Z,19.23
2018-05-27T19:36:25.177Z,19.09
2018-05-27T19:41:31.651Z,18.83
2018-05-27T19:46:37.202Z,18.30
2018-05-27T19:51:42.940Z,18.55
2018-05-27T19:56:48.254Z,18.66
2018-05-27T20:01:53.635Z,18.80
2018-05-27T20:06:59.078Z,18.64
2018-05-27T20:12:04.530Z,18.33
2018-05-27T20:17:09.800Z,18.80
2018-05-27T20:22:15.411Z,18.30
2018-05-27T20:27:20.518Z,17.67
2018-05-27T20:32:27.010Z,17.41
2018-05-27T20:37:33.219Z,17.17
2018-05-27T20:42:38.634Z,17.19
2018-05-27T20:47:43.887Z,16.91
2018-05-27T20:52:49.349Z,16.81
2018-05-27T20:57:54.864Z,16.62
2018-05-27T21:03:00.381Z,16.45
2018-05-27T21:08:05.851Z,16.39
2018-05-27T21:13:11.172Z,16.25
2018-05-27T21:18:16.656Z,16.17
2018-05-27T21:23:21.962Z,16.29
2018-05-27T21:28:27.318Z,16.24
2018-05-27T21:33:32.960Z,16.18
2018-05-27T21:38:38.282Z,16.11
2018-05-27T21:43:43.792Z,16.10
2018-05-27T21:48:49.273Z,16.24
2018-05-27T21:53:54.746Z,16.25
2018-05-27T21:59:00.138Z,16.10
2018-05-27T22:04:08.518Z,16.11
2018-05-27T22:09:14.766Z,15.99
2018-05-27T22:14:20.353Z,16.00
2018-05-27T22:19:25.732Z,16.17
2018-05-27T22:24:31.058Z,16.30
2018-05-27T22:29:36.452Z,16.24
2018-05-27T22:34:41.993Z,16.16
2018-05-27T22:39:47.319Z,16.27
2018-05-27T22:44:53.834Z,16.09
2018-05-27T22:49:59.406Z,16.12
2018-05-27T22:55:04.853Z,16.00
2018-05-27T23:00:09.553Z,16.02
2018-05-27T23:05:14.729Z,15.99
2018-05-27T23:10:20.121Z,16.02
2018-05-27T23:15:25.495Z,16.07
2018-05-27T23:20:30.856Z,16.00
2018-05-27T23:25:36.255Z,15.97
2018-05-27T23:30:41.839Z,15.89
2018-05-27T23:35:47.037Z,15.91
2018-05-27T23:40:52.570Z,15.90
2018-05-27T23:45:58.015Z,15.89
2018-05-27T23:51:03.678Z,15.92
2018-05-27T23:56:09.022Z,15.88
